Flight Track Log - Related Links

Times and Time Zones

All times are in EDT time to prevent confusion due to time zone crossing. See the LOF3330 flight status page for this flight to view local times or setup timezone preferences in your user account.

Time Position Orientation Groundspeed Altitude Reporting Facility
EDT Latitude Longitude Course Direction KTS MPH feet Rate Location/Type
Mon 09:54:58 AM 38.9833 -77.5500 322° Northwest 239 275 2,900  Level Potomac TRACON
Mon 09:55:58 AM 39.0333 -77.6333 308° West 291 335 5,600 2,789 Climbing Potomac TRACON
Mon 09:56:00 AM 39.1533 -77.6339 326° Northwest  Level FlightAware Approximate
Mon 09:56:52 AM 39.0833 -77.6833 322° Northwest 297 342 8,200  Level Potomac TRACON
Mon 09:57:00 AM 39.2281 -77.6986 326° Northwest  Level FlightAware Approximate
Mon 09:57:52 AM 39.1833 -77.7000 353° North 318 366 8,900  Level Potomac TRACON
Mon 09:58:00 AM 39.3029 -77.7634 326° Northwest  Level FlightAware Approximate
Mon 09:58:52 AM 39.2667 -77.7167 351° North 312 359 8,900  Level Potomac TRACON
Mon 09:59:00 AM 39.3776 -77.8283 326° Northwest  Level FlightAware Approximate
Mon 09:59:52 AM 39.3500 -77.7167 360° North 301 346 8,900  Level Potomac TRACON
Mon 10:00:00 AM 39.0102 -77.5101 322° Northwest  Level FlightAware Approximate
Mon 10:00:46 AM 39.4167 -77.7000 11° North 303 349 9,000  Level Potomac TRACON
Mon 10:01:46 AM 39.5000 -77.6500 25° Northeast 310 357 8,900 -53 Descending Potomac TRACON
Mon 10:02:40 AM 39.5667 -77.6000 30° Northeast 316 364 8,900  Level Potomac TRACON
Mon 10:03:34 AM 39.6333 -77.5500 30° Northeast 310 357 8,900  Level Potomac TRACON
Mon 10:04:34 AM 39.7167 -77.5000 25° Northeast 307 353 8,900 -714 Level Potomac TRACON
Mon 10:05:40 AM 39.7833 -77.4333 38° Northeast 293 337 7,400 -1,364 Descending Potomac TRACON
Mon 10:07:00 AM 39.8515 -77.3228 51° Northeast  Level Estimated
Mon 10:14:00 AM 40.1932 -76.7626 51° Northeast  Level Estimated
Mon 10:15:00 AM 40.1932 -76.7626 118° Southeast  Level Estimated
Mon 10:16:00 AM 40.1932 -76.7626 118° Southeast  Level Estimated
Mon 10:17:00 AM 40.1932 -76.7626 118° Southeast  Level Estimated
Mon 10:18:00 AM 40.1932 -76.7626 118° Southeast  Level Estimated
Mon 10:19:00 AM 40.1932 -76.7626 118° Southeast  Level Estimated
Mon 10:20:00 AM 40.1932 -76.7626 118° Southeast  Level Estimated
Mon 10:21:00 AM 40.1932 -76.7626 118° Southeast  Level Estimated
Mon 10:22:00 AM 40.1932 -76.7626 118° Southeast  Level Estimated
Mon 10:23:00 AM 40.1932 -76.7626 118° Southeast  Level Estimated
Mon 10:24:00 AM 40.1932 -76.7626 118° Southeast  Level Estimated
Mon 10:25:00 AM 40.1932 -76.7626 118° Southeast  Level Estimated
Mon 10:26:00 AM 40.1932 -76.7626 118° Southeast  Level Estimated
Mon 10:27:00 AM 40.1932 -76.7626 118° Southeast  Level Estimated

Login

Don't have an account? Register now (free) for customized features, flight alerts, and more!